sensor_id;sensor_type;location;lat;lon;timestamp;P1;durP1;ratioP1;P2;durP2;ratioP2
43626;SDS011;29217;52.586;13.442;2023-10-09T00:02:02;3.03;;;1.80;;
43626;SDS011;29217;52.586;13.442;2023-10-09T00:04:31;3.80;;;1.92;;
43626;SDS011;29217;52.586;13.442;2023-10-09T00:06:57;4.57;;;1.90;;
43626;SDS011;29217;52.586;13.442;2023-10-09T00:09:24;5.38;;;2.40;;
43626;SDS011;29217;52.586;13.442;2023-10-09T00:11:50;3.92;;;1.95;;
43626;SDS011;29217;52.586;13.442;2023-10-09T00:14:25;2.47;;;1.70;;
43626;SDS011;29217;52.586;13.442;2023-10-09T00:16:52;3.80;;;1.90;;
43626;SDS011;29217;52.586;13.442;2023-10-09T00:19:21;3.70;;;2.00;;
43626;SDS011;29217;52.586;13.442;2023-10-09T00:21:56;2.85;;;1.90;;
43626;SDS011;29217;52.586;13.442;2023-10-09T00:24:23;3.78;;;2.20;;
43626;SDS011;29217;52.586;13.442;2023-10-09T00:26:49;5.22;;;2.42;;
43626;SDS011;29217;52.586;13.442;2023-10-09T00:29:16;2.92;;;2.05;;
43626;SDS011;29217;52.586;13.442;2023-10-09T00:31:49;3.63;;;2.30;;
43626;SDS011;29217;52.586;13.442;2023-10-09T00:34:28;3.05;;;2.10;;
43626;SDS011;29217;52.586;13.442;2023-10-09T00:36:54;3.45;;;2.17;;
43626;SDS011;29217;52.586;13.442;2023-10-09T00:39:22;4.60;;;2.25;;
43626;SDS011;29217;52.586;13.442;2023-10-09T00:42:06;4.18;;;2.00;;
43626;SDS011;29217;52.586;13.442;2023-10-09T00:44:35;4.00;;;2.00;;
43626;SDS011;29217;52.586;13.442;2023-10-09T00:47:13;4.35;;;2.20;;
43626;SDS011;29217;52.586;13.442;2023-10-09T00:50:06;3.63;;;2.30;;
43626;SDS011;29217;52.586;13.442;2023-10-09T00:52:46;4.60;;;2.20;;
43626;SDS011;29217;52.586;13.442;2023-10-09T00:55:19;4.32;;;2.45;;
43626;SDS011;29217;52.586;13.442;2023-10-09T00:58:05;7.90;;;2.85;;
43626;SDS011;29217;52.586;13.442;2023-10-09T01:00:37;6.93;;;2.97;;
43626;SDS011;29217;52.586;13.442;2023-10-09T01:03:17;5.75;;;3.00;;
43626;SDS011;29217;52.586;13.442;2023-10-09T01:05:54;8.48;;;3.63;;
43626;SDS011;29217;52.586;13.442;2023-10-09T01:08:30;8.18;;;3.17;;
43626;SDS011;29217;52.586;13.442;2023-10-09T01:11:12;5.25;;;2.55;;
43626;SDS011;29217;52.586;13.442;2023-10-09T01:13:48;2.90;;;1.98;;
43626;SDS011;29217;52.586;13.442;2023-10-09T01:16:15;3.35;;;2.33;;
43626;SDS011;29217;52.586;13.442;2023-10-09T01:18:43;2.42;;;1.90;;
43626;SDS011;29217;52.586;13.442;2023-10-09T01:21:12;3.97;;;1.95;;
43626;SDS011;29217;52.586;13.442;2023-10-09T01:23:43;7.85;;;1.95;;
43626;SDS011;29217;52.586;13.442;2023-10-09T01:26:30;3.33;;;1.80;;
43626;SDS011;29217;52.586;13.442;2023-10-09T01:29:04;3.10;;;1.98;;
43626;SDS011;29217;52.586;13.442;2023-10-09T01:31:35;2.10;;;1.70;;
43626;SDS011;29217;52.586;13.442;2023-10-09T01:34:03;4.22;;;2.03;;
43626;SDS011;29217;52.586;13.442;2023-10-09T01:36:35;3.42;;;1.98;;
43626;SDS011;29217;52.586;13.442;2023-10-09T01:39:04;3.67;;;1.90;;
43626;SDS011;29217;52.586;13.442;2023-10-09T01:41:56;5.35;;;2.00;;
43626;SDS011;29217;52.586;13.442;2023-10-09T01:44:30;2.28;;;2.08;;
43626;SDS011;29217;52.586;13.442;2023-10-09T01:47:02;3.65;;;2.10;;
43626;SDS011;29217;52.586;13.442;2023-10-09T01:49:38;5.65;;;2.70;;
43626;SDS011;29217;52.586;13.442;2023-10-09T01:52:08;4.32;;;2.10;;
43626;SDS011;29217;52.586;13.442;2023-10-09T01:54:42;3.28;;;2.15;;
43626;SDS011;29217;52.586;13.442;2023-10-09T01:57:14;3.65;;;2.25;;
43626;SDS011;29217;52.586;13.442;2023-10-09T01:59:47;4.18;;;2.20;;
43626;SDS011;29217;52.586;13.442;2023-10-09T02:02:18;3.40;;;2.20;;
43626;SDS011;29217;52.586;13.442;2023-10-09T02:04:54;2.28;;;1.85;;
43626;SDS011;29217;52.586;13.442;2023-10-09T02:07:31;3.20;;;2.05;;
43626;SDS011;29217;52.586;13.442;2023-10-09T02:10:09;2.78;;;1.88;;
43626;SDS011;29217;52.586;13.442;2023-10-09T02:12:55;4.03;;;2.40;;
43626;SDS011;29217;52.586;13.442;2023-10-09T02:15:30;2.97;;;2.05;;
43626;SDS011;29217;52.586;13.442;2023-10-09T02:18:25;4.18;;;2.30;;
43626;SDS011;29217;52.586;13.442;2023-10-09T02:21:11;6.57;;;2.40;;
43626;SDS011;29217;52.586;13.442;2023-10-09T02:23:37;8.32;;;2.20;;
43626;SDS011;29217;52.586;13.442;2023-10-09T02:26:09;5.90;;;2.95;;
43626;SDS011;29217;52.586;13.442;2023-10-09T02:28:43;10.95;;;3.08;;
43626;SDS011;29217;52.586;13.442;2023-10-09T02:31:09;6.13;;;2.78;;
43626;SDS011;29217;52.586;13.442;2023-10-09T02:33:36;4.50;;;2.80;;
43626;SDS011;29217;52.586;13.442;2023-10-09T02:36:04;6.57;;;2.88;;
43626;SDS011;29217;52.586;13.442;2023-10-09T02:38:31;5.78;;;2.42;;
43626;SDS011;29217;52.586;13.442;2023-10-09T02:41:07;3.78;;;2.58;;
43626;SDS011;29217;52.586;13.442;2023-10-09T02:43:39;5.38;;;2.65;;
43626;SDS011;29217;52.586;13.442;2023-10-09T02:46:12;5.95;;;2.70;;
43626;SDS011;29217;52.586;13.442;2023-10-09T02:48:54;4.57;;;2.70;;
43626;SDS011;29217;52.586;13.442;2023-10-09T02:51:24;4.68;;;3.20;;
43626;SDS011;29217;52.586;13.442;2023-10-09T02:53:51;3.78;;;2.67;;
43626;SDS011;29217;52.586;13.442;2023-10-09T02:56:31;6.47;;;2.75;;
43626;SDS011;29217;52.586;13.442;2023-10-09T02:59:07;4.13;;;2.38;;
43626;SDS011;29217;52.586;13.442;2023-10-09T03:01:34;4.63;;;2.70;;
43626;SDS011;29217;52.586;13.442;2023-10-09T03:04:02;3.50;;;2.22;;
43626;SDS011;29217;52.586;13.442;2023-10-09T03:06:31;4.78;;;2.28;;
43626;SDS011;29217;52.586;13.442;2023-10-09T03:09:00;6.68;;;2.85;;
43626;SDS011;29217;52.586;13.442;2023-10-09T03:11:26;7.22;;;2.20;;
43626;SDS011;29217;52.586;13.442;2023-10-09T03:13:52;7.10;;;2.85;;
43626;SDS011;29217;52.586;13.442;2023-10-09T03:16:18;6.97;;;2.70;;
43626;SDS011;29217;52.586;13.442;2023-10-09T03:18:53;7.60;;;2.55;;
43626;SDS011;29217;52.586;13.442;2023-10-09T03:21:19;5.38;;;3.08;;
43626;SDS011;29217;52.586;13.442;2023-10-09T03:23:46;6.40;;;2.80;;
43626;SDS011;29217;52.586;13.442;2023-10-09T03:26:15;5.07;;;3.00;;
43626;SDS011;29217;52.586;13.442;2023-10-09T03:28:43;7.25;;;2.92;;
43626;SDS011;29217;52.586;13.442;2023-10-09T03:31:12;10.27;;;3.00;;
43626;SDS011;29217;52.586;13.442;2023-10-09T03:33:38;6.10;;;2.53;;
43626;SDS011;29217;52.586;13.442;2023-10-09T03:36:04;3.85;;;2.60;;
43626;SDS011;29217;52.586;13.442;2023-10-09T03:38:34;5.60;;;2.60;;
43626;SDS011;29217;52.586;13.442;2023-10-09T03:41:01;3.85;;;2.42;;
43626;SDS011;29217;52.586;13.442;2023-10-09T03:43:34;4.30;;;2.60;;
43626;SDS011;29217;52.586;13.442;2023-10-09T03:46:05;6.75;;;3.03;;
43626;SDS011;29217;52.586;13.442;2023-10-09T03:48:46;7.97;;;2.67;;
43626;SDS011;29217;52.586;13.442;2023-10-09T03:51:14;6.13;;;2.42;;
43626;SDS011;29217;52.586;13.442;2023-10-09T03:53:46;5.22;;;2.70;;
43626;SDS011;29217;52.586;13.442;2023-10-09T03:56:13;6.47;;;2.90;;
43626;SDS011;29217;52.586;13.442;2023-10-09T03:58:41;4.07;;;2.83;;
43626;SDS011;29217;52.586;13.442;2023-10-09T04:01:14;6.00;;;2.67;;
43626;SDS011;29217;52.586;13.442;2023-10-09T04:03:50;5.20;;;2.78;;
43626;SDS011;29217;52.586;13.442;2023-10-09T04:06:26;5.75;;;3.28;;
43626;SDS011;29217;52.586;13.442;2023-10-09T04:09:01;6.38;;;3.35;;
43626;SDS011;29217;52.586;13.442;2023-10-09T04:11:44;4.82;;;3.30;;
43626;SDS011;29217;52.586;13.442;2023-10-09T04:14:11;7.28;;;4.25;;
43626;SDS011;29217;52.586;13.442;2023-10-09T04:16:51;7.07;;;3.25;;
43626;SDS011;29217;52.586;13.442;2023-10-09T04:19:17;5.35;;;3.20;;
43626;SDS011;29217;52.586;13.442;2023-10-09T04:21:47;5.30;;;3.10;;
43626;SDS011;29217;52.586;13.442;2023-10-09T04:24:13;3.95;;;2.50;;
43626;SDS011;29217;52.586;13.442;2023-10-09T04:26:40;7.78;;;3.13;;
43626;SDS011;29217;52.586;13.442;2023-10-09T04:31:59;4.53;;;2.88;;
43626;SDS011;29217;52.586;13.442;2023-10-09T04:34:26;9.90;;;3.10;;
43626;SDS011;29217;52.586;13.442;2023-10-09T04:37:00;4.07;;;3.03;;
43626;SDS011;29217;52.586;13.442;2023-10-09T04:39:27;5.47;;;3.15;;
43626;SDS011;29217;52.586;13.442;2023-10-09T04:41:56;5.35;;;2.90;;
43626;SDS011;29217;52.586;13.442;2023-10-09T04:44:43;8.05;;;2.97;;
43626;SDS011;29217;52.586;13.442;2023-10-09T04:47:29;9.13;;;3.03;;
43626;SDS011;29217;52.586;13.442;2023-10-09T04:52:39;4.65;;;2.60;;
43626;SDS011;29217;52.586;13.442;2023-10-09T04:55:06;8.60;;;2.90;;
43626;SDS011;29217;52.586;13.442;2023-10-09T04:57:32;7.43;;;3.20;;
43626;SDS011;29217;52.586;13.442;2023-10-09T05:02:58;7.20;;;3.50;;
43626;SDS011;29217;52.586;13.442;2023-10-09T05:05:31;8.48;;;3.17;;
43626;SDS011;29217;52.586;13.442;2023-10-09T05:08:09;8.23;;;2.92;;
43626;SDS011;29217;52.586;13.442;2023-10-09T05:10:49;4.72;;;2.88;;
43626;SDS011;29217;52.586;13.442;2023-10-09T05:16:15;4.38;;;2.83;;
43626;SDS011;29217;52.586;13.442;2023-10-09T05:18:52;7.28;;;3.33;;
43626;SDS011;29217;52.586;13.442;2023-10-09T05:21:31;6.38;;;3.38;;
43626;SDS011;29217;52.586;13.442;2023-10-09T05:24:09;6.10;;;3.20;;
43626;SDS011;29217;52.586;13.442;2023-10-09T05:29:11;5.90;;;3.33;;
43626;SDS011;29217;52.586;13.442;2023-10-09T05:32:01;6.53;;;3.70;;
43626;SDS011;29217;52.586;13.442;2023-10-09T05:34:31;7.07;;;3.97;;
43626;SDS011;29217;52.586;13.442;2023-10-09T05:37:04;8.07;;;3.65;;
43626;SDS011;29217;52.586;13.442;2023-10-09T05:39:43;7.18;;;3.90;;
43626;SDS011;29217;52.586;13.442;2023-10-09T05:42:23;6.32;;;4.00;;
43626;SDS011;29217;52.586;13.442;2023-10-09T05:44:53;9.73;;;4.65;;
43626;SDS011;29217;52.586;13.442;2023-10-09T05:47:38;7.35;;;3.80;;
43626;SDS011;29217;52.586;13.442;2023-10-09T05:50:12;9.38;;;4.10;;
43626;SDS011;29217;52.586;13.442;2023-10-09T05:52:38;8.52;;;4.57;;
43626;SDS011;29217;52.586;13.442;2023-10-09T05:55:04;6.82;;;4.38;;
43626;SDS011;29217;52.586;13.442;2023-10-09T05:57:49;7.78;;;4.38;;
43626;SDS011;29217;52.586;13.442;2023-10-09T06:00:34;7.60;;;4.53;;
43626;SDS011;29217;52.586;13.442;2023-10-09T06:03:18;7.15;;;4.97;;
43626;SDS011;29217;52.586;13.442;2023-10-09T06:05:44;8.20;;;5.03;;
43626;SDS011;29217;52.586;13.442;2023-10-09T06:08:27;9.32;;;4.72;;
43626;SDS011;29217;52.586;13.442;2023-10-09T06:11:09;8.45;;;4.50;;
43626;SDS011;29217;52.586;13.442;2023-10-09T06:13:58;9.15;;;4.45;;
43626;SDS011;29217;52.586;13.442;2023-10-09T06:16:47;10.23;;;4.55;;
43626;SDS011;29217;52.586;13.442;2023-10-09T06:19:22;6.90;;;4.10;;
43626;SDS011;29217;52.586;13.442;2023-10-09T06:21:53;11.50;;;4.10;;
43626;SDS011;29217;52.586;13.442;2023-10-09T06:24:29;7.35;;;4.20;;
43626;SDS011;29217;52.586;13.442;2023-10-09T06:27:06;7.65;;;4.22;;
43626;SDS011;29217;52.586;13.442;2023-10-09T06:29:32;5.75;;;4.10;;
43626;SDS011;29217;52.586;13.442;2023-10-09T06:32:01;7.28;;;3.80;;
43626;SDS011;29217;52.586;13.442;2023-10-09T06:34:51;9.60;;;3.92;;
43626;SDS011;29217;52.586;13.442;2023-10-09T06:37:22;6.72;;;4.00;;
43626;SDS011;29217;52.586;13.442;2023-10-09T06:39:48;7.97;;;4.63;;
43626;SDS011;29217;52.586;13.442;2023-10-09T06:45:01;6.43;;;3.53;;
43626;SDS011;29217;52.586;13.442;2023-10-09T06:47:38;7.65;;;3.67;;
43626;SDS011;29217;52.586;13.442;2023-10-09T06:50:12;6.97;;;3.88;;
43626;SDS011;29217;52.586;13.442;2023-10-09T06:52:47;9.02;;;3.85;;
43626;SDS011;29217;52.586;13.442;2023-10-09T06:55:25;4.57;;;2.80;;
43626;SDS011;29217;52.586;13.442;2023-10-09T06:58:02;5.28;;;3.28;;
43626;SDS011;29217;52.586;13.442;2023-10-09T07:00:38;6.57;;;3.65;;
43626;SDS011;29217;52.586;13.442;2023-10-09T07:03:23;8.20;;;3.90;;
43626;SDS011;29217;52.586;13.442;2023-10-09T07:06:07;6.40;;;4.20;;
43626;SDS011;29217;52.586;13.442;2023-10-09T07:08:51;8.02;;;3.85;;
43626;SDS011;29217;52.586;13.442;2023-10-09T07:11:31;5.63;;;3.22;;
43626;SDS011;29217;52.586;13.442;2023-10-09T07:14:05;9.05;;;3.17;;
43626;SDS011;29217;52.586;13.442;2023-10-09T07:16:54;5.82;;;3.50;;
43626;SDS011;29217;52.586;13.442;2023-10-09T07:19:25;6.22;;;4.30;;
43626;SDS011;29217;52.586;13.442;2023-10-09T07:22:23;8.65;;;4.15;;
43626;SDS011;29217;52.586;13.442;2023-10-09T07:24:54;7.97;;;4.40;;
43626;SDS011;29217;52.586;13.442;2023-10-09T07:27:21;9.85;;;4.90;;
43626;SDS011;29217;52.586;13.442;2023-10-09T07:30:10;9.05;;;4.30;;
43626;SDS011;29217;52.586;13.442;2023-10-09T07:33:12;5.60;;;3.85;;
43626;SDS011;29217;52.586;13.442;2023-10-09T07:35:39;10.32;;;3.97;;
43626;SDS011;29217;52.586;13.442;2023-10-09T07:38:25;8.48;;;4.03;;
43626;SDS011;29217;52.586;13.442;2023-10-09T07:40:54;7.07;;;3.38;;
43626;SDS011;29217;52.586;13.442;2023-10-09T07:43:21;7.20;;;3.42;;
43626;SDS011;29217;52.586;13.442;2023-10-09T07:46:15;5.85;;;3.40;;
43626;SDS011;29217;52.586;13.442;2023-10-09T07:49:05;5.07;;;3.20;;
43626;SDS011;29217;52.586;13.442;2023-10-09T07:51:46;6.85;;;3.70;;
43626;SDS011;29217;52.586;13.442;2023-10-09T07:54:12;5.28;;;3.33;;
43626;SDS011;29217;52.586;13.442;2023-10-09T07:56:56;6.55;;;3.92;;
43626;SDS011;29217;52.586;13.442;2023-10-09T07:59:33;5.45;;;3.97;;
43626;SDS011;29217;52.586;13.442;2023-10-09T08:02:06;7.10;;;3.70;;
43626;SDS011;29217;52.586;13.442;2023-10-09T08:04:38;11.05;;;4.80;;
43626;SDS011;29217;52.586;13.442;2023-10-09T08:07:13;11.40;;;5.75;;
43626;SDS011;29217;52.586;13.442;2023-10-09T08:09:51;9.65;;;5.47;;
43626;SDS011;29217;52.586;13.442;2023-10-09T08:12:46;11.50;;;5.68;;
43626;SDS011;29217;52.586;13.442;2023-10-09T08:15:12;8.98;;;5.13;;
43626;SDS011;29217;52.586;13.442;2023-10-09T08:17:51;14.15;;;6.25;;
43626;SDS011;29217;52.586;13.442;2023-10-09T08:20:35;9.00;;;5.72;;
43626;SDS011;29217;52.586;13.442;2023-10-09T08:23:16;10.40;;;5.90;;
43626;SDS011;29217;52.586;13.442;2023-10-09T08:26:00;9.45;;;5.93;;
43626;SDS011;29217;52.586;13.442;2023-10-09T08:28:38;12.55;;;6.18;;
43626;SDS011;29217;52.586;13.442;2023-10-09T08:31:22;11.95;;;6.63;;
43626;SDS011;29217;52.586;13.442;2023-10-09T08:34:10;12.80;;;7.20;;
43626;SDS011;29217;52.586;13.442;2023-10-09T08:36:48;13.30;;;7.00;;
43626;SDS011;29217;52.586;13.442;2023-10-09T08:39:17;18.05;;;8.70;;
43626;SDS011;29217;52.586;13.442;2023-10-09T08:41:55;17.98;;;8.38;;
43626;SDS011;29217;52.586;13.442;2023-10-09T08:44:23;14.02;;;7.38;;
43626;SDS011;29217;52.586;13.442;2023-10-09T08:46:51;15.10;;;8.13;;
43626;SDS011;29217;52.586;13.442;2023-10-09T08:49:19;14.30;;;7.60;;
43626;SDS011;29217;52.586;13.442;2023-10-09T08:51:46;13.18;;;7.43;;
43626;SDS011;29217;52.586;13.442;2023-10-09T08:54:13;14.30;;;7.60;;
43626;SDS011;29217;52.586;13.442;2023-10-09T08:56:39;11.73;;;7.15;;
43626;SDS011;29217;52.586;13.442;2023-10-09T08:59:14;16.10;;;7.10;;
43626;SDS011;29217;52.586;13.442;2023-10-09T09:01:47;13.05;;;7.82;;
43626;SDS011;29217;52.586;13.442;2023-10-09T09:07:03;12.40;;;7.55;;
43626;SDS011;29217;52.586;13.442;2023-10-09T09:09:56;15.23;;;6.90;;
43626;SDS011;29217;52.586;13.442;2023-10-09T09:12:26;13.25;;;6.90;;
43626;SDS011;29217;52.586;13.442;2023-10-09T09:14:55;11.63;;;7.03;;
43626;SDS011;29217;52.586;13.442;2023-10-09T09:17:23;12.73;;;7.38;;
43626;SDS011;29217;52.586;13.442;2023-10-09T09:19:57;14.07;;;6.95;;
43626;SDS011;29217;52.586;13.442;2023-10-09T09:22:23;15.80;;;7.40;;
43626;SDS011;29217;52.586;13.442;2023-10-09T09:25:00;12.32;;;7.22;;
43626;SDS011;29217;52.586;13.442;2023-10-09T09:27:44;12.90;;;8.32;;
43626;SDS011;29217;52.586;13.442;2023-10-09T09:30:23;10.98;;;7.07;;
43626;SDS011;29217;52.586;13.442;2023-10-09T09:32:51;14.73;;;7.30;;
43626;SDS011;29217;52.586;13.442;2023-10-09T09:35:36;16.15;;;6.97;;
43626;SDS011;29217;52.586;13.442;2023-10-09T09:38:01;14.18;;;7.07;;
43626;SDS011;29217;52.586;13.442;2023-10-09T09:40:31;10.13;;;6.15;;
43626;SDS011;29217;52.586;13.442;2023-10-09T09:43:06;14.07;;;6.15;;
43626;SDS011;29217;52.586;13.442;2023-10-09T09:45:42;12.68;;;6.25;;
43626;SDS011;29217;52.586;13.442;2023-10-09T09:48:13;11.57;;;6.28;;
43626;SDS011;29217;52.586;13.442;2023-10-09T09:50:41;15.23;;;6.20;;
43626;SDS011;29217;52.586;13.442;2023-10-09T09:53:13;12.80;;;6.20;;
43626;SDS011;29217;52.586;13.442;2023-10-09T09:55:44;10.48;;;5.93;;
43626;SDS011;29217;52.586;13.442;2023-10-09T09:58:21;10.95;;;5.57;;
43626;SDS011;29217;52.586;13.442;2023-10-09T10:00:56;9.00;;;5.80;;
43626;SDS011;29217;52.586;13.442;2023-10-09T10:03:34;9.85;;;5.45;;
43626;SDS011;29217;52.586;13.442;2023-10-09T10:06:04;13.60;;;5.70;;
43626;SDS011;29217;52.586;13.442;2023-10-09T10:08:38;6.97;;;4.45;;
43626;SDS011;29217;52.586;13.442;2023-10-09T10:11:06;6.47;;;4.30;;
43626;SDS011;29217;52.586;13.442;2023-10-09T10:16:16;8.65;;;4.47;;
43626;SDS011;29217;52.586;13.442;2023-10-09T10:19:17;9.43;;;4.05;;
43626;SDS011;29217;52.586;13.442;2023-10-09T10:21:36;6.88;;;3.78;;
43626;SDS011;29217;52.586;13.442;2023-10-09T10:32:57;5.40;;;3.50;;
43626;SDS011;29217;52.586;13.442;2023-10-09T10:35:34;5.00;;;3.63;;
43626;SDS011;29217;52.586;13.442;2023-10-09T10:38:51;8.57;;;3.35;;
43626;SDS011;29217;52.586;13.442;2023-10-09T10:41:18;5.88;;;3.10;;
43626;SDS011;29217;52.586;13.442;2023-10-09T10:43:47;4.97;;;3.40;;
43626;SDS011;29217;52.586;13.442;2023-10-09T10:46:16;8.55;;;3.72;;
43626;SDS011;29217;52.586;13.442;2023-10-09T10:48:48;5.57;;;3.20;;
43626;SDS011;29217;52.586;13.442;2023-10-09T10:51:15;5.82;;;3.63;;
43626;SDS011;29217;52.586;13.442;2023-10-09T10:53:50;5.78;;;3.47;;
43626;SDS011;29217;52.586;13.442;2023-10-09T10:56:18;3.90;;;2.53;;
43626;SDS011;29217;52.586;13.442;2023-10-09T10:58:53;7.05;;;3.50;;
43626;SDS011;29217;52.586;13.442;2023-10-09T11:01:20;5.25;;;3.75;;
43626;SDS011;29217;52.586;13.442;2023-10-09T11:03:51;5.85;;;3.30;;
43626;SDS011;29217;52.586;13.442;2023-10-09T11:06:26;6.38;;;3.22;;
43626;SDS011;29217;52.586;13.442;2023-10-09T11:09:02;6.68;;;3.80;;
43626;SDS011;29217;52.586;13.442;2023-10-09T11:11:46;5.65;;;3.55;;
43626;SDS011;29217;52.586;13.442;2023-10-09T11:14:20;5.82;;;3.38;;
43626;SDS011;29217;52.586;13.442;2023-10-09T11:16:49;6.75;;;3.65;;
43626;SDS011;29217;52.586;13.442;2023-10-09T11:19:21;6.57;;;4.13;;
43626;SDS011;29217;52.586;13.442;2023-10-09T11:21:53;11.30;;;4.50;;
43626;SDS011;29217;52.586;13.442;2023-10-09T11:24:43;14.85;;;5.10;;
43626;SDS011;29217;52.586;13.442;2023-10-09T11:27:25;8.02;;;4.90;;
43626;SDS011;29217;52.586;13.442;2023-10-09T11:29:57;9.90;;;5.28;;
43626;SDS011;29217;52.586;13.442;2023-10-09T11:32:30;12.63;;;6.97;;
43626;SDS011;29217;52.586;13.442;2023-10-09T11:35:10;7.30;;;4.13;;
43626;SDS011;29217;52.586;13.442;2023-10-09T11:37:56;7.20;;;3.60;;
43626;SDS011;29217;52.586;13.442;2023-10-09T11:40:29;6.22;;;3.63;;
43626;SDS011;29217;52.586;13.442;2023-10-09T11:43:17;11.43;;;5.22;;
43626;SDS011;29217;52.586;13.442;2023-10-09T11:45:42;10.15;;;4.57;;
43626;SDS011;29217;52.586;13.442;2023-10-09T11:48:19;6.13;;;3.38;;
43626;SDS011;29217;52.586;13.442;2023-10-09T11:51:11;6.68;;;3.90;;
43626;SDS011;29217;52.586;13.442;2023-10-09T11:53:46;9.55;;;3.80;;
43626;SDS011;29217;52.586;13.442;2023-10-09T11:56:15;5.30;;;3.53;;
43626;SDS011;29217;52.586;13.442;2023-10-09T11:58:48;5.70;;;3.63;;
43626;SDS011;29217;52.586;13.442;2023-10-09T12:01:19;6.07;;;3.53;;
43626;SDS011;29217;52.586;13.442;2023-10-09T12:03:46;5.07;;;3.53;;
43626;SDS011;29217;52.586;13.442;2023-10-09T12:06:15;6.25;;;4.05;;
43626;SDS011;29217;52.586;13.442;2023-10-09T12:08:44;8.23;;;3.60;;
43626;SDS011;29217;52.586;13.442;2023-10-09T12:11:16;5.78;;;3.60;;
43626;SDS011;29217;52.586;13.442;2023-10-09T12:13:53;6.95;;;3.35;;
43626;SDS011;29217;52.586;13.442;2023-10-09T12:16:23;8.68;;;3.78;;
43626;SDS011;29217;52.586;13.442;2023-10-09T12:18:53;5.25;;;3.83;;
43626;SDS011;29217;52.586;13.442;2023-10-09T12:21:20;7.35;;;3.53;;
43626;SDS011;29217;52.586;13.442;2023-10-09T12:23:45;5.45;;;3.60;;
43626;SDS011;29217;52.586;13.442;2023-10-09T12:26:12;7.95;;;3.88;;
43626;SDS011;29217;52.586;13.442;2023-10-09T12:28:41;6.53;;;3.60;;
43626;SDS011;29217;52.586;13.442;2023-10-09T12:31:15;6.55;;;3.53;;
43626;SDS011;29217;52.586;13.442;2023-10-09T12:33:41;5.50;;;3.60;;
43626;SDS011;29217;52.586;13.442;2023-10-09T12:36:11;5.50;;;3.63;;
43626;SDS011;29217;52.586;13.442;2023-10-09T12:38:42;6.30;;;3.35;;
43626;SDS011;29217;52.586;13.442;2023-10-09T12:41:11;6.13;;;3.60;;
43626;SDS011;29217;52.586;13.442;2023-10-09T12:43:53;6.70;;;4.15;;
43626;SDS011;29217;52.586;13.442;2023-10-09T12:46:20;9.10;;;4.53;;
43626;SDS011;29217;52.586;13.442;2023-10-09T12:48:50;7.85;;;4.30;;
43626;SDS011;29217;52.586;13.442;2023-10-09T12:51:20;6.43;;;4.47;;
43626;SDS011;29217;52.586;13.442;2023-10-09T12:53:50;7.15;;;4.45;;
43626;SDS011;29217;52.586;13.442;2023-10-09T12:56:25;7.47;;;4.60;;
43626;SDS011;29217;52.586;13.442;2023-10-09T12:59:01;5.38;;;4.18;;
43626;SDS011;29217;52.586;13.442;2023-10-09T13:01:29;6.40;;;4.22;;
43626;SDS011;29217;52.586;13.442;2023-10-09T13:03:57;7.78;;;4.72;;
43626;SDS011;29217;52.586;13.442;2023-10-09T13:06:25;8.00;;;4.78;;
43626;SDS011;29217;52.586;13.442;2023-10-09T13:08:51;11.93;;;5.07;;
43626;SDS011;29217;52.586;13.442;2023-10-09T13:11:17;10.93;;;5.72;;
43626;SDS011;29217;52.586;13.442;2023-10-09T13:13:43;9.13;;;5.03;;
43626;SDS011;29217;52.586;13.442;2023-10-09T13:16:15;7.15;;;4.93;;
43626;SDS011;29217;52.586;13.442;2023-10-09T13:18:52;9.27;;;4.88;;
43626;SDS011;29217;52.586;13.442;2023-10-09T13:21:25;9.90;;;4.97;;
43626;SDS011;29217;52.586;13.442;2023-10-09T13:23:56;9.43;;;5.28;;
43626;SDS011;29217;52.586;13.442;2023-10-09T13:26:22;8.30;;;5.63;;
43626;SDS011;29217;52.586;13.442;2023-10-09T13:29:01;8.43;;;5.05;;
43626;SDS011;29217;52.586;13.442;2023-10-09T13:31:27;8.40;;;5.72;;
43626;SDS011;29217;52.586;13.442;2023-10-09T13:33:57;16.42;;;6.50;;
43626;SDS011;29217;52.586;13.442;2023-10-09T13:36:25;17.73;;;7.50;;
43626;SDS011;29217;52.586;13.442;2023-10-09T13:38:58;10.05;;;5.85;;
43626;SDS011;29217;52.586;13.442;2023-10-09T13:41:55;10.95;;;6.18;;
43626;SDS011;29217;52.586;13.442;2023-10-09T13:44:29;9.07;;;5.95;;
43626;SDS011;29217;52.586;13.442;2023-10-09T13:46:56;11.48;;;6.22;;
43626;SDS011;29217;52.586;13.442;2023-10-09T13:49:26;9.68;;;5.63;;
43626;SDS011;29217;52.586;13.442;2023-10-09T13:51:55;11.00;;;6.00;;
43626;SDS011;29217;52.586;13.442;2023-10-09T13:54:22;10.00;;;6.30;;
43626;SDS011;29217;52.586;13.442;2023-10-09T13:57:04;8.30;;;5.55;;
43626;SDS011;29217;52.586;13.442;2023-10-09T13:59:30;9.95;;;6.50;;
43626;SDS011;29217;52.586;13.442;2023-10-09T14:02:07;12.77;;;6.53;;
43626;SDS011;29217;52.586;13.442;2023-10-09T14:04:41;11.82;;;6.47;;
43626;SDS011;29217;52.586;13.442;2023-10-09T14:07:07;10.57;;;6.25;;
43626;SDS011;29217;52.586;13.442;2023-10-09T14:09:33;9.40;;;6.05;;
43626;SDS011;29217;52.586;13.442;2023-10-09T14:12:10;8.90;;;5.05;;
43626;SDS011;29217;52.586;13.442;2023-10-09T14:17:12;10.02;;;6.40;;
43626;SDS011;29217;52.586;13.442;2023-10-09T14:19:48;15.82;;;6.75;;
43626;SDS011;29217;52.586;13.442;2023-10-09T14:22:18;11.20;;;6.28;;
43626;SDS011;29217;52.586;13.442;2023-10-09T14:24:46;9.77;;;6.43;;
43626;SDS011;29217;52.586;13.442;2023-10-09T14:27:15;10.15;;;5.90;;
43626;SDS011;29217;52.586;13.442;2023-10-09T14:29:47;9.52;;;6.22;;
43626;SDS011;29217;52.586;13.442;2023-10-09T14:32:13;10.95;;;6.43;;
43626;SDS011;29217;52.586;13.442;2023-10-09T14:34:39;11.82;;;6.63;;
43626;SDS011;29217;52.586;13.442;2023-10-09T14:37:14;10.88;;;6.45;;
43626;SDS011;29217;52.586;13.442;2023-10-09T14:39:41;10.95;;;6.93;;
43626;SDS011;29217;52.586;13.442;2023-10-09T14:42:07;10.13;;;6.38;;
43626;SDS011;29217;52.586;13.442;2023-10-09T14:44:36;12.32;;;6.68;;
43626;SDS011;29217;52.586;13.442;2023-10-09T14:47:05;14.85;;;6.38;;
43626;SDS011;29217;52.586;13.442;2023-10-09T14:49:35;11.82;;;6.47;;
43626;SDS011;29217;52.586;13.442;2023-10-09T14:52:03;11.43;;;6.43;;
43626;SDS011;29217;52.586;13.442;2023-10-09T14:54:33;10.63;;;5.95;;
43626;SDS011;29217;52.586;13.442;2023-10-09T14:56:59;11.55;;;6.38;;
43626;SDS011;29217;52.586;13.442;2023-10-09T14:59:24;9.18;;;6.22;;
43626;SDS011;29217;52.586;13.442;2023-10-09T15:01:50;13.68;;;6.18;;
43626;SDS011;29217;52.586;13.442;2023-10-09T15:04:18;7.90;;;5.82;;
43626;SDS011;29217;52.586;13.442;2023-10-09T15:06:45;10.75;;;6.25;;
43626;SDS011;29217;52.586;13.442;2023-10-09T15:09:14;12.00;;;6.80;;
43626;SDS011;29217;52.586;13.442;2023-10-09T15:11:46;10.32;;;5.80;;
43626;SDS011;29217;52.586;13.442;2023-10-09T15:14:13;10.57;;;5.72;;
43626;SDS011;29217;52.586;13.442;2023-10-09T15:16:39;9.55;;;5.57;;
43626;SDS011;29217;52.586;13.442;2023-10-09T15:19:07;8.68;;;5.68;;
43626;SDS011;29217;52.586;13.442;2023-10-09T15:21:35;8.43;;;5.47;;
43626;SDS011;29217;52.586;13.442;2023-10-09T15:24:08;9.32;;;5.68;;
43626;SDS011;29217;52.586;13.442;2023-10-09T15:26:41;8.88;;;5.90;;
43626;SDS011;29217;52.586;13.442;2023-10-09T15:29:17;10.55;;;6.20;;
43626;SDS011;29217;52.586;13.442;2023-10-09T15:31:51;10.13;;;5.82;;
43626;SDS011;29217;52.586;13.442;2023-10-09T15:34:17;10.13;;;5.85;;
43626;SDS011;29217;52.586;13.442;2023-10-09T15:36:44;9.48;;;5.63;;
43626;SDS011;29217;52.586;13.442;2023-10-09T15:39:12;9.85;;;5.93;;
43626;SDS011;29217;52.586;13.442;2023-10-09T15:41:38;10.93;;;5.93;;